sensor_id;sensor_type;location;lat;lon;timestamp;P1;durP1;ratioP1;P2;durP2;ratioP2
21705;SDS011;11014;53.076;18.208;2023-04-21T00:00:08;506.85;;;134.00;;
21705;SDS011;11014;53.076;18.208;2023-04-21T00:02:58;501.05;;;136.75;;
21705;SDS011;11014;53.076;18.208;2023-04-21T00:05:27;351.60;;;103.95;;
21705;SDS011;11014;53.076;18.208;2023-04-21T00:10:50;161.95;;;55.35;;
21705;SDS011;11014;53.076;18.208;2023-04-21T00:13:18;122.18;;;45.13;;
21705;SDS011;11014;53.076;18.208;2023-04-21T00:15:47;98.30;;;39.05;;
21705;SDS011;11014;53.076;18.208;2023-04-21T00:18:16;93.82;;;38.65;;
21705;SDS011;11014;53.076;18.208;2023-04-21T00:20:47;79.78;;;34.20;;
21705;SDS011;11014;53.076;18.208;2023-04-21T00:23:15;73.22;;;31.13;;
21705;SDS011;11014;53.076;18.208;2023-04-21T00:25:44;74.88;;;32.10;;
21705;SDS011;11014;53.076;18.208;2023-04-21T00:28:12;67.20;;;30.67;;
21705;SDS011;11014;53.076;18.208;2023-04-21T00:30:41;61.20;;;29.80;;
21705;SDS011;11014;53.076;18.208;2023-04-21T00:33:10;52.60;;;26.83;;
21705;SDS011;11014;53.076;18.208;2023-04-21T00:35:39;47.88;;;25.40;;
21705;SDS011;11014;53.076;18.208;2023-04-21T00:38:07;40.05;;;24.25;;
21705;SDS011;11014;53.076;18.208;2023-04-21T00:40:36;39.75;;;23.85;;
21705;SDS011;11014;53.076;18.208;2023-04-21T00:43:05;36.60;;;23.77;;
21705;SDS011;11014;53.076;18.208;2023-04-21T00:45:34;35.08;;;22.38;;
21705;SDS011;11014;53.076;18.208;2023-04-21T00:48:03;38.50;;;23.40;;
21705;SDS011;11014;53.076;18.208;2023-04-21T00:50:35;35.40;;;23.50;;
21705;SDS011;11014;53.076;18.208;2023-04-21T00:53:06;32.60;;;22.88;;
21705;SDS011;11014;53.076;18.208;2023-04-21T00:55:35;33.58;;;22.83;;
21705;SDS011;11014;53.076;18.208;2023-04-21T00:58:04;35.60;;;23.30;;
21705;SDS011;11014;53.076;18.208;2023-04-21T01:00:33;33.53;;;23.30;;
21705;SDS011;11014;53.076;18.208;2023-04-21T01:03:04;34.33;;;23.52;;
21705;SDS011;11014;53.076;18.208;2023-04-21T01:05:35;34.75;;;23.13;;
21705;SDS011;11014;53.076;18.208;2023-04-21T01:08:03;33.95;;;22.80;;
21705;SDS011;11014;53.076;18.208;2023-04-21T01:10:34;32.75;;;22.58;;
21705;SDS011;11014;53.076;18.208;2023-04-21T01:13:02;34.08;;;22.27;;
21705;SDS011;11014;53.076;18.208;2023-04-21T01:15:31;38.08;;;23.20;;
21705;SDS011;11014;53.076;18.208;2023-04-21T01:20:55;36.17;;;23.25;;
21705;SDS011;11014;53.076;18.208;2023-04-21T01:23:25;34.80;;;23.67;;
21705;SDS011;11014;53.076;18.208;2023-04-21T01:25:54;36.65;;;23.02;;
21705;SDS011;11014;53.076;18.208;2023-04-21T01:28:22;35.08;;;22.83;;
21705;SDS011;11014;53.076;18.208;2023-04-21T01:30:52;38.63;;;25.13;;
21705;SDS011;11014;53.076;18.208;2023-04-21T01:33:29;36.50;;;23.45;;
21705;SDS011;11014;53.076;18.208;2023-04-21T01:35:58;34.70;;;23.45;;
21705;SDS011;11014;53.076;18.208;2023-04-21T01:38:32;36.28;;;23.48;;
21705;SDS011;11014;53.076;18.208;2023-04-21T01:41:01;42.05;;;24.63;;
21705;SDS011;11014;53.076;18.208;2023-04-21T01:43:30;41.25;;;24.35;;
21705;SDS011;11014;53.076;18.208;2023-04-21T01:45:59;40.03;;;23.98;;
21705;SDS011;11014;53.076;18.208;2023-04-21T01:48:27;36.88;;;23.20;;
21705;SDS011;11014;53.076;18.208;2023-04-21T01:50:57;35.28;;;22.92;;
21705;SDS011;11014;53.076;18.208;2023-04-21T01:53:25;36.17;;;23.90;;
21705;SDS011;11014;53.076;18.208;2023-04-21T01:55:54;33.17;;;22.58;;
21705;SDS011;11014;53.076;18.208;2023-04-21T01:58:22;34.65;;;22.98;;
21705;SDS011;11014;53.076;18.208;2023-04-21T02:00:54;36.25;;;22.75;;
21705;SDS011;11014;53.076;18.208;2023-04-21T02:03:23;33.85;;;22.83;;
21705;SDS011;11014;53.076;18.208;2023-04-21T02:05:52;36.80;;;23.80;;
21705;SDS011;11014;53.076;18.208;2023-04-21T02:08:20;37.03;;;22.88;;
21705;SDS011;11014;53.076;18.208;2023-04-21T02:10:49;36.10;;;23.75;;
21705;SDS011;11014;53.076;18.208;2023-04-21T02:13:31;36.00;;;22.25;;
21705;SDS011;11014;53.076;18.208;2023-04-21T02:16:01;32.83;;;22.27;;
21705;SDS011;11014;53.076;18.208;2023-04-21T02:18:40;34.63;;;22.00;;
21705;SDS011;11014;53.076;18.208;2023-04-21T02:21:09;35.28;;;21.92;;
21705;SDS011;11014;53.076;18.208;2023-04-21T02:23:37;33.67;;;22.40;;
21705;SDS011;11014;53.076;18.208;2023-04-21T02:26:06;34.60;;;22.33;;
21705;SDS011;11014;53.076;18.208;2023-04-21T02:28:35;32.45;;;22.02;;
21705;SDS011;11014;53.076;18.208;2023-04-21T02:31:03;33.42;;;22.20;;
21705;SDS011;11014;53.076;18.208;2023-04-21T02:33:33;40.38;;;23.10;;
21705;SDS011;11014;53.076;18.208;2023-04-21T02:36:03;35.88;;;22.92;;
21705;SDS011;11014;53.076;18.208;2023-04-21T02:38:31;31.45;;;21.38;;
21705;SDS011;11014;53.076;18.208;2023-04-21T02:41:00;35.88;;;22.90;;
21705;SDS011;11014;53.076;18.208;2023-04-21T02:43:30;35.65;;;23.35;;
21705;SDS011;11014;53.076;18.208;2023-04-21T02:46:04;35.97;;;23.13;;
21705;SDS011;11014;53.076;18.208;2023-04-21T02:48:34;34.65;;;22.13;;
21705;SDS011;11014;53.076;18.208;2023-04-21T02:51:03;32.90;;;22.20;;
21705;SDS011;11014;53.076;18.208;2023-04-21T02:53:32;36.88;;;22.55;;
21705;SDS011;11014;53.076;18.208;2023-04-21T02:56:01;38.08;;;23.15;;
21705;SDS011;11014;53.076;18.208;2023-04-21T02:58:32;39.55;;;23.25;;
21705;SDS011;11014;53.076;18.208;2023-04-21T03:01:00;42.33;;;24.35;;
21705;SDS011;11014;53.076;18.208;2023-04-21T03:03:30;47.00;;;24.83;;
21705;SDS011;11014;53.076;18.208;2023-04-21T03:06:02;44.92;;;24.85;;
21705;SDS011;11014;53.076;18.208;2023-04-21T03:08:31;47.08;;;26.38;;
21705;SDS011;11014;53.076;18.208;2023-04-21T03:11:00;52.67;;;25.75;;
21705;SDS011;11014;53.076;18.208;2023-04-21T03:13:29;62.22;;;27.85;;
21705;SDS011;11014;53.076;18.208;2023-04-21T03:15:57;58.72;;;27.40;;
21705;SDS011;11014;53.076;18.208;2023-04-21T03:18:26;55.22;;;26.00;;
21705;SDS011;11014;53.076;18.208;2023-04-21T03:20:58;50.60;;;26.02;;
21705;SDS011;11014;53.076;18.208;2023-04-21T03:23:28;78.28;;;30.90;;
21705;SDS011;11014;53.076;18.208;2023-04-21T03:25:57;67.25;;;28.83;;
21705;SDS011;11014;53.076;18.208;2023-04-21T03:28:25;71.82;;;28.88;;
21705;SDS011;11014;53.076;18.208;2023-04-21T03:30:54;111.90;;;39.35;;
21705;SDS011;11014;53.076;18.208;2023-04-21T03:33:22;100.22;;;34.17;;
21705;SDS011;11014;53.076;18.208;2023-04-21T03:35:52;97.40;;;33.88;;
21705;SDS011;11014;53.076;18.208;2023-04-21T03:38:20;109.43;;;37.70;;
21705;SDS011;11014;53.076;18.208;2023-04-21T03:40:49;108.93;;;39.67;;
21705;SDS011;11014;53.076;18.208;2023-04-21T03:43:17;128.02;;;41.42;;
21705;SDS011;11014;53.076;18.208;2023-04-21T03:45:46;131.15;;;42.35;;
21705;SDS011;11014;53.076;18.208;2023-04-21T03:48:14;138.40;;;45.67;;
21705;SDS011;11014;53.076;18.208;2023-04-21T03:50:43;144.82;;;47.35;;
21705;SDS011;11014;53.076;18.208;2023-04-21T03:53:11;161.65;;;55.53;;
21705;SDS011;11014;53.076;18.208;2023-04-21T03:55:40;178.23;;;60.75;;
21705;SDS011;11014;53.076;18.208;2023-04-21T03:58:08;191.77;;;69.07;;
21705;SDS011;11014;53.076;18.208;2023-04-21T04:00:37;162.88;;;59.65;;
21705;SDS011;11014;53.076;18.208;2023-04-21T04:03:06;165.20;;;60.25;;
21705;SDS011;11014;53.076;18.208;2023-04-21T04:05:35;145.60;;;55.05;;
21705;SDS011;11014;53.076;18.208;2023-04-21T04:08:03;152.35;;;57.58;;
21705;SDS011;11014;53.076;18.208;2023-04-21T04:10:32;107.70;;;44.45;;
21705;SDS011;11014;53.076;18.208;2023-04-21T04:13:01;69.22;;;36.42;;
21705;SDS011;11014;53.076;18.208;2023-04-21T04:15:29;77.47;;;39.78;;
21705;SDS011;11014;53.076;18.208;2023-04-21T04:17:57;106.47;;;46.63;;
21705;SDS011;11014;53.076;18.208;2023-04-21T04:20:27;91.07;;;42.42;;
21705;SDS011;11014;53.076;18.208;2023-04-21T04:22:55;88.25;;;40.17;;
21705;SDS011;11014;53.076;18.208;2023-04-21T04:25:23;68.88;;;35.97;;
21705;SDS011;11014;53.076;18.208;2023-04-21T04:27:52;70.95;;;36.42;;
21705;SDS011;11014;53.076;18.208;2023-04-21T04:30:20;135.68;;;53.17;;
21705;SDS011;11014;53.076;18.208;2023-04-21T04:32:50;111.70;;;48.92;;
21705;SDS011;11014;53.076;18.208;2023-04-21T04:35:20;126.90;;;49.33;;
21705;SDS011;11014;53.076;18.208;2023-04-21T04:37:48;137.35;;;53.00;;
21705;SDS011;11014;53.076;18.208;2023-04-21T04:40:17;165.32;;;60.30;;
21705;SDS011;11014;53.076;18.208;2023-04-21T04:42:45;191.30;;;65.30;;
21705;SDS011;11014;53.076;18.208;2023-04-21T04:45:16;177.93;;;63.72;;
21705;SDS011;11014;53.076;18.208;2023-04-21T04:47:44;149.75;;;54.95;;
21705;SDS011;11014;53.076;18.208;2023-04-21T04:50:13;170.43;;;59.15;;
21705;SDS011;11014;53.076;18.208;2023-04-21T04:52:41;220.68;;;72.30;;
21705;SDS011;11014;53.076;18.208;2023-04-21T04:55:14;189.25;;;65.00;;
21705;SDS011;11014;53.076;18.208;2023-04-21T04:57:42;172.93;;;59.75;;
21705;SDS011;11014;53.076;18.208;2023-04-21T05:00:11;195.98;;;66.75;;
21705;SDS011;11014;53.076;18.208;2023-04-21T05:02:41;186.27;;;65.78;;
21705;SDS011;11014;53.076;18.208;2023-04-21T05:05:10;169.40;;;59.03;;
21705;SDS011;11014;53.076;18.208;2023-04-21T05:07:39;131.80;;;49.80;;
21705;SDS011;11014;53.076;18.208;2023-04-21T05:10:08;133.55;;;49.38;;
21705;SDS011;11014;53.076;18.208;2023-04-21T05:12:36;130.75;;;47.83;;
21705;SDS011;11014;53.076;18.208;2023-04-21T05:15:05;119.90;;;45.75;;
21705;SDS011;11014;53.076;18.208;2023-04-21T05:17:33;105.90;;;40.67;;
21705;SDS011;11014;53.076;18.208;2023-04-21T05:20:03;67.25;;;28.08;;
21705;SDS011;11014;53.076;18.208;2023-04-21T05:22:38;58.72;;;25.13;;
21705;SDS011;11014;53.076;18.208;2023-04-21T05:25:09;40.05;;;23.27;;
21705;SDS011;11014;53.076;18.208;2023-04-21T05:27:39;39.50;;;21.17;;
21705;SDS011;11014;53.076;18.208;2023-04-21T05:30:08;28.77;;;19.15;;
21705;SDS011;11014;53.076;18.208;2023-04-21T05:32:37;34.45;;;19.40;;
21705;SDS011;11014;53.076;18.208;2023-04-21T05:35:06;34.03;;;19.08;;
21705;SDS011;11014;53.076;18.208;2023-04-21T05:37:35;32.03;;;18.60;;
21705;SDS011;11014;53.076;18.208;2023-04-21T05:40:03;33.25;;;18.67;;
21705;SDS011;11014;53.076;18.208;2023-04-21T05:42:32;26.80;;;17.55;;
21705;SDS011;11014;53.076;18.208;2023-04-21T05:45:01;25.70;;;16.67;;
21705;SDS011;11014;53.076;18.208;2023-04-21T05:47:30;29.20;;;16.88;;
21705;SDS011;11014;53.076;18.208;2023-04-21T05:49:59;23.30;;;16.85;;
21705;SDS011;11014;53.076;18.208;2023-04-21T05:52:27;25.13;;;16.40;;
21705;SDS011;11014;53.076;18.208;2023-04-21T05:54:56;24.38;;;17.00;;
21705;SDS011;11014;53.076;18.208;2023-04-21T05:57:28;24.92;;;15.80;;
21705;SDS011;11014;53.076;18.208;2023-04-21T05:59:57;24.73;;;15.77;;
21705;SDS011;11014;53.076;18.208;2023-04-21T06:02:25;23.00;;;15.70;;
21705;SDS011;11014;53.076;18.208;2023-04-21T06:04:54;23.80;;;15.85;;
21705;SDS011;11014;53.076;18.208;2023-04-21T06:07:23;24.50;;;15.88;;
21705;SDS011;11014;53.076;18.208;2023-04-21T06:09:51;23.20;;;14.93;;
21705;SDS011;11014;53.076;18.208;2023-04-21T06:12:19;24.15;;;15.15;;
21705;SDS011;11014;53.076;18.208;2023-04-21T06:14:48;23.52;;;15.43;;
21705;SDS011;11014;53.076;18.208;2023-04-21T06:17:17;21.40;;;14.63;;
21705;SDS011;11014;53.076;18.208;2023-04-21T06:19:46;19.70;;;14.68;;
21705;SDS011;11014;53.076;18.208;2023-04-21T06:22:19;22.30;;;15.95;;
21705;SDS011;11014;53.076;18.208;2023-04-21T06:24:48;25.27;;;15.13;;
21705;SDS011;11014;53.076;18.208;2023-04-21T06:27:16;22.00;;;14.63;;
21705;SDS011;11014;53.076;18.208;2023-04-21T06:29:45;24.10;;;15.10;;
21705;SDS011;11014;53.076;18.208;2023-04-21T06:32:14;23.27;;;14.45;;
21705;SDS011;11014;53.076;18.208;2023-04-21T06:34:43;18.55;;;13.27;;
21705;SDS011;11014;53.076;18.208;2023-04-21T06:37:11;18.23;;;13.20;;
21705;SDS011;11014;53.076;18.208;2023-04-21T06:39:40;18.98;;;14.38;;
21705;SDS011;11014;53.076;18.208;2023-04-21T06:42:08;22.73;;;13.43;;
21705;SDS011;11014;53.076;18.208;2023-04-21T06:44:43;16.40;;;12.38;;
21705;SDS011;11014;53.076;18.208;2023-04-21T06:47:11;18.90;;;13.20;;
21705;SDS011;11014;53.076;18.208;2023-04-21T06:49:41;19.27;;;13.23;;
21705;SDS011;11014;53.076;18.208;2023-04-21T06:52:09;17.92;;;12.23;;
21705;SDS011;11014;53.076;18.208;2023-04-21T06:54:38;15.10;;;11.70;;
21705;SDS011;11014;53.076;18.208;2023-04-21T06:57:06;18.88;;;11.32;;
21705;SDS011;11014;53.076;18.208;2023-04-21T06:59:35;16.92;;;11.27;;
21705;SDS011;11014;53.076;18.208;2023-04-21T07:02:03;17.77;;;11.05;;
21705;SDS011;11014;53.076;18.208;2023-04-21T07:04:32;14.57;;;10.55;;
21705;SDS011;11014;53.076;18.208;2023-04-21T07:07:00;19.27;;;11.80;;
21705;SDS011;11014;53.076;18.208;2023-04-21T07:09:30;15.20;;;10.98;;
21705;SDS011;11014;53.076;18.208;2023-04-21T07:12:00;19.63;;;11.18;;
21705;SDS011;11014;53.076;18.208;2023-04-21T07:14:30;17.08;;;10.70;;
21705;SDS011;11014;53.076;18.208;2023-04-21T07:16:58;14.02;;;10.32;;
21705;SDS011;11014;53.076;18.208;2023-04-21T07:19:27;17.55;;;10.20;;
21705;SDS011;11014;53.076;18.208;2023-04-21T07:21:55;20.17;;;10.60;;
21705;SDS011;11014;53.076;18.208;2023-04-21T07:24:25;15.25;;;10.93;;
21705;SDS011;11014;53.076;18.208;2023-04-21T07:26:53;15.25;;;11.25;;
21705;SDS011;11014;53.076;18.208;2023-04-21T07:29:22;14.35;;;10.43;;
21705;SDS011;11014;53.076;18.208;2023-04-21T07:31:50;14.43;;;10.88;;
21705;SDS011;11014;53.076;18.208;2023-04-21T07:34:18;16.85;;;10.75;;
21705;SDS011;11014;53.076;18.208;2023-04-21T07:36:47;16.38;;;11.32;;
21705;SDS011;11014;53.076;18.208;2023-04-21T07:39:16;15.93;;;10.98;;
21705;SDS011;11014;53.076;18.208;2023-04-21T07:41:44;17.55;;;10.70;;
21705;SDS011;11014;53.076;18.208;2023-04-21T07:44:13;15.90;;;12.10;;
21705;SDS011;11014;53.076;18.208;2023-04-21T07:46:41;17.25;;;11.48;;
21705;SDS011;11014;53.076;18.208;2023-04-21T07:49:10;14.38;;;10.35;;
21705;SDS011;11014;53.076;18.208;2023-04-21T07:51:38;17.38;;;11.38;;
21705;SDS011;11014;53.076;18.208;2023-04-21T07:54:07;15.50;;;11.13;;
21705;SDS011;11014;53.076;18.208;2023-04-21T07:56:35;15.57;;;11.60;;
21705;SDS011;11014;53.076;18.208;2023-04-21T07:59:04;14.30;;;10.13;;
21705;SDS011;11014;53.076;18.208;2023-04-21T08:01:32;13.65;;;10.70;;
21705;SDS011;11014;53.076;18.208;2023-04-21T08:04:01;13.93;;;10.43;;
21705;SDS011;11014;53.076;18.208;2023-04-21T08:06:29;14.30;;;10.80;;
21705;SDS011;11014;53.076;18.208;2023-04-21T08:09:00;15.18;;;10.95;;
21705;SDS011;11014;53.076;18.208;2023-04-21T08:11:29;15.68;;;10.40;;
21705;SDS011;11014;53.076;18.208;2023-04-21T08:13:57;12.35;;;9.60;;
21705;SDS011;11014;53.076;18.208;2023-04-21T08:16:26;13.23;;;9.88;;
21705;SDS011;11014;53.076;18.208;2023-04-21T08:18:55;15.07;;;10.32;;
21705;SDS011;11014;53.076;18.208;2023-04-21T08:21:23;13.68;;;10.13;;
21705;SDS011;11014;53.076;18.208;2023-04-21T08:23:51;17.73;;;10.60;;
21705;SDS011;11014;53.076;18.208;2023-04-21T08:26:22;17.98;;;11.27;;
21705;SDS011;11014;53.076;18.208;2023-04-21T08:28:55;17.10;;;10.80;;
21705;SDS011;11014;53.076;18.208;2023-04-21T08:31:24;15.35;;;10.00;;
21705;SDS011;11014;53.076;18.208;2023-04-21T08:33:53;13.23;;;9.68;;
21705;SDS011;11014;53.076;18.208;2023-04-21T08:36:29;13.18;;;9.68;;
21705;SDS011;11014;53.076;18.208;2023-04-21T08:38:59;14.25;;;9.65;;
21705;SDS011;11014;53.076;18.208;2023-04-21T08:41:28;16.30;;;10.00;;
21705;SDS011;11014;53.076;18.208;2023-04-21T08:43:57;13.70;;;9.30;;
21705;SDS011;11014;53.076;18.208;2023-04-21T08:46:33;13.38;;;8.20;;
21705;SDS011;11014;53.076;18.208;2023-04-21T08:49:03;11.70;;;8.80;;
21705;SDS011;11014;53.076;18.208;2023-04-21T08:51:32;11.20;;;8.48;;
21705;SDS011;11014;53.076;18.208;2023-04-21T08:54:01;13.05;;;8.50;;
21705;SDS011;11014;53.076;18.208;2023-04-21T08:56:30;12.40;;;9.02;;
21705;SDS011;11014;53.076;18.208;2023-04-21T08:58:58;12.38;;;8.48;;
21705;SDS011;11014;53.076;18.208;2023-04-21T09:01:27;12.30;;;8.70;;
21705;SDS011;11014;53.076;18.208;2023-04-21T09:04:38;12.18;;;8.55;;
21705;SDS011;11014;53.076;18.208;2023-04-21T09:06:47;12.07;;;8.18;;
21705;SDS011;11014;53.076;18.208;2023-04-21T09:09:16;12.45;;;9.23;;
21705;SDS011;11014;53.076;18.208;2023-04-21T09:11:44;13.00;;;9.65;;
21705;SDS011;11014;53.076;18.208;2023-04-21T09:14:32;11.27;;;8.80;;
21705;SDS011;11014;53.076;18.208;2023-04-21T09:17:01;16.25;;;8.63;;
21705;SDS011;11014;53.076;18.208;2023-04-21T09:19:32;11.60;;;8.85;;
21705;SDS011;11014;53.076;18.208;2023-04-21T09:22:01;12.98;;;8.75;;
21705;SDS011;11014;53.076;18.208;2023-04-21T09:24:30;10.55;;;7.90;;
21705;SDS011;11014;53.076;18.208;2023-04-21T09:27:01;11.93;;;8.50;;
21705;SDS011;11014;53.076;18.208;2023-04-21T09:29:31;12.93;;;8.10;;
21705;SDS011;11014;53.076;18.208;2023-04-21T09:31:59;10.10;;;8.43;;
21705;SDS011;11014;53.076;18.208;2023-04-21T09:34:28;12.68;;;8.60;;
21705;SDS011;11014;53.076;18.208;2023-04-21T09:36:58;11.85;;;7.57;;
21705;SDS011;11014;53.076;18.208;2023-04-21T09:39:31;10.80;;;7.93;;
21705;SDS011;11014;53.076;18.208;2023-04-21T09:42:19;12.45;;;8.55;;
21705;SDS011;11014;53.076;18.208;2023-04-21T09:44:57;11.95;;;8.40;;
21705;SDS011;11014;53.076;18.208;2023-04-21T09:47:48;10.60;;;7.38;;
21705;SDS011;11014;53.076;18.208;2023-04-21T09:50:20;13.57;;;7.75;;
21705;SDS011;11014;53.076;18.208;2023-04-21T09:53:14;10.18;;;7.57;;
21705;SDS011;11014;53.076;18.208;2023-04-21T09:55:44;11.55;;;6.88;;
21705;SDS011;11014;53.076;18.208;2023-04-21T09:58:18;9.32;;;6.50;;
21705;SDS011;11014;53.076;18.208;2023-04-21T10:00:51;10.00;;;7.10;;
21705;SDS011;11014;53.076;18.208;2023-04-21T10:03:23;16.77;;;6.90;;
21705;SDS011;11014;53.076;18.208;2023-04-21T10:05:54;6.95;;;6.13;;
21705;SDS011;11014;53.076;18.208;2023-04-21T10:08:23;9.20;;;6.05;;
21705;SDS011;11014;53.076;18.208;2023-04-21T10:10:51;7.93;;;5.45;;
21705;SDS011;11014;53.076;18.208;2023-04-21T10:13:21;11.05;;;6.13;;
21705;SDS011;11014;53.076;18.208;2023-04-21T10:15:59;8.02;;;5.70;;
21705;SDS011;11014;53.076;18.208;2023-04-21T10:18:29;8.55;;;6.40;;
21705;SDS011;11014;53.076;18.208;2023-04-21T10:23:37;10.20;;;6.05;;
21705;SDS011;11014;53.076;18.208;2023-04-21T10:26:17;11.52;;;6.10;;
21705;SDS011;11014;53.076;18.208;2023-04-21T10:31:23;6.05;;;5.22;;
21705;SDS011;11014;53.076;18.208;2023-04-21T10:39:33;7.55;;;5.95;;
21705;SDS011;11014;53.076;18.208;2023-04-21T10:44:51;10.07;;;5.60;;
21705;SDS011;11014;53.076;18.208;2023-04-21T10:47:24;7.43;;;5.88;;
21705;SDS011;11014;53.076;18.208;2023-04-21T10:49:58;8.93;;;5.28;;
21705;SDS011;11014;53.076;18.208;2023-04-21T10:52:38;6.70;;;5.20;;
21705;SDS011;11014;53.076;18.208;2023-04-21T10:55:07;8.85;;;5.82;;
21705;SDS011;11014;53.076;18.208;2023-04-21T10:57:40;7.43;;;5.60;;
21705;SDS011;11014;53.076;18.208;2023-04-21T11:00:14;13.18;;;6.13;;
21705;SDS011;11014;53.076;18.208;2023-04-21T11:02:51;9.75;;;5.28;;
21705;SDS011;11014;53.076;18.208;2023-04-21T11:05:28;7.47;;;5.15;;
21705;SDS011;11014;53.076;18.208;2023-04-21T11:08:02;8.82;;;5.38;;
21705;SDS011;11014;53.076;18.208;2023-04-21T11:10:44;8.25;;;5.65;;
21705;SDS011;11014;53.076;18.208;2023-04-21T11:13:24;9.30;;;5.72;;
21705;SDS011;11014;53.076;18.208;2023-04-21T11:15:58;8.90;;;5.85;;
21705;SDS011;11014;53.076;18.208;2023-04-21T11:21:14;8.27;;;6.07;;
21705;SDS011;11014;53.076;18.208;2023-04-21T11:23:55;7.50;;;5.50;;
21705;SDS011;11014;53.076;18.208;2023-04-21T11:26:34;6.72;;;5.53;;
21705;SDS011;11014;53.076;18.208;2023-04-21T11:29:07;5.88;;;5.07;;
21705;SDS011;11014;53.076;18.208;2023-04-21T11:31:38;11.77;;;5.65;;
21705;SDS011;11014;53.076;18.208;2023-04-21T11:34:09;6.82;;;5.47;;
21705;SDS011;11014;53.076;18.208;2023-04-21T11:36:39;10.80;;;5.85;;
21705;SDS011;11014;53.076;18.208;2023-04-21T11:39:09;11.13;;;5.65;;
21705;SDS011;11014;53.076;18.208;2023-04-21T11:41:47;6.38;;;5.18;;
21705;SDS011;11014;53.076;18.208;2023-04-21T11:47:24;6.00;;;5.20;;
21705;SDS011;11014;53.076;18.208;2023-04-21T11:49:55;6.23;;;5.50;;
21705;SDS011;11014;53.076;18.208;2023-04-21T11:52:29;6.00;;;5.40;;
21705;SDS011;11014;53.076;18.208;2023-04-21T11:55:10;7.95;;;5.55;;
21705;SDS011;11014;53.076;18.208;2023-04-21T11:57:39;7.05;;;5.65;;
21705;SDS011;11014;53.076;18.208;2023-04-21T12:00:10;14.90;;;5.68;;
21705;SDS011;11014;53.076;18.208;2023-04-21T12:02:42;9.10;;;5.55;;
21705;SDS011;11014;53.076;18.208;2023-04-21T12:05:12;8.70;;;5.45;;
21705;SDS011;11014;53.076;18.208;2023-04-21T12:07:42;9.00;;;5.60;;
21705;SDS011;11014;53.076;18.208;2023-04-21T12:10:12;5.80;;;5.00;;
21705;SDS011;11014;53.076;18.208;2023-04-21T12:12:43;10.25;;;5.68;;
21705;SDS011;11014;53.076;18.208;2023-04-21T12:15:17;7.22;;;5.28;;
21705;SDS011;11014;53.076;18.208;2023-04-21T12:17:47;6.93;;;5.03;;
21705;SDS011;11014;53.076;18.208;2023-04-21T12:20:19;8.75;;;5.53;;
21705;SDS011;11014;53.076;18.208;2023-04-21T12:22:55;7.93;;;5.40;;
21705;SDS011;11014;53.076;18.208;2023-04-21T12:25:24;6.60;;;5.30;;
21705;SDS011;11014;53.076;18.208;2023-04-21T12:27:56;9.27;;;4.90;;
21705;SDS011;11014;53.076;18.208;2023-04-21T12:30:25;9.60;;;4.75;;
21705;SDS011;11014;53.076;18.208;2023-04-21T12:35:36;7.25;;;5.00;;
21705;SDS011;11014;53.076;18.208;2023-04-21T12:38:06;12.38;;;4.72;;
21705;SDS011;11014;53.076;18.208;2023-04-21T12:40:35;5.32;;;4.70;;
21705;SDS011;11014;53.076;18.208;2023-04-21T12:45:58;7.70;;;4.95;;
21705;SDS011;11014;53.076;18.208;2023-04-21T12:48:27;8.27;;;5.07;;
21705;SDS011;11014;53.076;18.208;2023-04-21T12:50:56;9.50;;;4.38;;
21705;SDS011;11014;53.076;18.208;2023-04-21T12:53:24;6.65;;;4.43;;
21705;SDS011;11014;53.076;18.208;2023-04-21T12:55:53;6.60;;;3.92;;
21705;SDS011;11014;53.076;18.208;2023-04-21T12:58:31;4.80;;;4.07;;
21705;SDS011;11014;53.076;18.208;2023-04-21T13:01:00;5.57;;;4.18;;
21705;SDS011;11014;53.076;18.208;2023-04-21T13:03:28;5.40;;;4.07;;
21705;SDS011;11014;53.076;18.208;2023-04-21T13:05:58;7.95;;;4.20;;
21705;SDS011;11014;53.076;18.208;2023-04-21T13:08:26;6.05;;;4.20;;
21705;SDS011;11014;53.076;18.208;2023-04-21T13:10:55;7.40;;;4.15;;
21705;SDS011;11014;53.076;18.208;2023-04-21T13:13:25;10.88;;;4.18;;
21705;SDS011;11014;53.076;18.208;2023-04-21T13:15:54;7.22;;;4.25;;
21705;SDS011;11014;53.076;18.208;2023-04-21T13:18:23;9.25;;;4.38;;
21705;SDS011;11014;53.076;18.208;2023-04-21T13:20:51;7.60;;;3.88;;
21705;SDS011;11014;53.076;18.208;2023-04-21T13:23:19;5.75;;;4.28;;
21705;SDS011;11014;53.076;18.208;2023-04-21T13:25:48;7.07;;;3.88;;
21705;SDS011;11014;53.076;18.208;2023-04-21T13:28:21;6.57;;;4.40;;
21705;SDS011;11014;53.076;18.208;2023-04-21T13:30:50;8.90;;;4.28;;
21705;SDS011;11014;53.076;18.208;2023-04-21T13:33:20;5.65;;;4.18;;
21705;SDS011;11014;53.076;18.208;2023-04-21T13:35:49;6.45;;;4.45;;
21705;SDS011;11014;53.076;18.208;2023-04-21T13:38:19;4.40;;;3.90;;
21705;SDS011;11014;53.076;18.208;2023-04-21T13:40:47;6.03;;;5.15;;
21705;SDS011;11014;53.076;18.208;2023-04-21T13:43:16;6.18;;;4.32;;
21705;SDS011;11014;53.076;18.208;2023-04-21T13:45:45;6.28;;;4.38;;
21705;SDS011;11014;53.076;18.208;2023-04-21T13:48:14;9.73;;;4.57;;
21705;SDS011;11014;53.076;18.208;2023-04-21T13:50:44;7.95;;;4.18;;
21705;SDS011;11014;53.076;18.208;2023-04-21T13:53:12;5.47;;;4.32;;
21705;SDS011;11014;53.076;18.208;2023-04-21T13:55:44;6.55;;;4.70;;
21705;SDS011;11014;53.076;18.208;2023-04-21T13:58:14;4.50;;;4.10;;
21705;SDS011;11014;53.076;18.208;2023-04-21T14:00:43;5.80;;;4.70;;
21705;SDS011;11014;53.076;18.208;2023-04-21T14:03:12;5.20;;;4.70;;
21705;SDS011;11014;53.076;18.208;2023-04-21T14:05:41;6.85;;;4.75;;
21705;SDS011;11014;53.076;18.208;2023-04-21T14:08:10;10.95;;;4.93;;
21705;SDS011;11014;53.076;18.208;2023-04-21T14:10:38;5.07;;;4.05;;
21705;SDS011;11014;53.076;18.208;2023-04-21T14:13:07;7.32;;;4.55;;
21705;SDS011;11014;53.076;18.208;2023-04-21T14:15:41;6.43;;;4.50;;
21705;SDS011;11014;53.076;18.208;2023-04-21T14:18:10;9.15;;;4.43;;
21705;SDS011;11014;53.076;18.208;2023-04-21T14:20:39;5.45;;;4.78;;
21705;SDS011;11014;53.076;18.208;2023-04-21T14:23:07;9.52;;;4.97;;
21705;SDS011;11014;53.076;18.208;2023-04-21T14:25:36;6.53;;;4.70;;
21705;SDS011;11014;53.076;18.208;2023-04-21T14:28:04;6.88;;;4.95;;
21705;SDS011;11014;53.076;18.208;2023-04-21T14:30:35;6.05;;;4.55;;
21705;SDS011;11014;53.076;18.208;2023-04-21T14:33:29;7.38;;;4.38;;
21705;SDS011;11014;53.076;18.208;2023-04-21T14:35:58;7.93;;;4.45;;
21705;SDS011;11014;53.076;18.208;2023-04-21T14:38:26;6.22;;;4.80;;
21705;SDS011;11014;53.076;18.208;2023-04-21T14:43:25;9.23;;;4.88;;
21705;SDS011;11014;53.076;18.208;2023-04-21T14:45:54;9.63;;;4.63;;
21705;SDS011;11014;53.076;18.208;2023-04-21T14:48:22;9.95;;;4.90;;
21705;SDS011;11014;53.076;18.208;2023-04-21T14:50:51;5.53;;;4.30;;
21705;SDS011;11014;53.076;18.208;2023-04-21T14:53:20;6.50;;;4.68;;
21705;SDS011;11014;53.076;18.208;2023-04-21T14:55:48;7.43;;;4.63;;
21705;SDS011;11014;53.076;18.208;2023-04-21T14:58:18;10.55;;;4.63;;
21705;SDS011;11014;53.076;18.208;2023-04-21T15:00:47;4.75;;;4.30;;
21705;SDS011;11014;53.076;18.208;2023-04-21T15:03:16;5.45;;;4.47;;
21705;SDS011;11014;53.076;18.208;2023-04-21T15:05:45;5.97;;;4.80;;